sensor_id;sensor_type;location;lat;lon;timestamp;P1;durP1;ratioP1;P2;durP2;ratioP2
35745;SDS011;21870;42.812;74.628;2023-09-30T00:01:02;4.20;;;2.60;;
35745;SDS011;21870;42.812;74.628;2023-09-30T00:03:33;5.38;;;2.72;;
35745;SDS011;21870;42.812;74.628;2023-09-30T00:05:59;2.95;;;2.70;;
35745;SDS011;21870;42.812;74.628;2023-09-30T00:08:29;2.80;;;2.60;;
35745;SDS011;21870;42.812;74.628;2023-09-30T00:10:55;5.88;;;5.38;;
35745;SDS011;21870;42.812;74.628;2023-09-30T00:13:21;8.23;;;6.63;;
35745;SDS011;21870;42.812;74.628;2023-09-30T00:15:48;2.15;;;2.05;;
35745;SDS011;21870;42.812;74.628;2023-09-30T00:18:14;3.92;;;2.42;;
35745;SDS011;21870;42.812;74.628;2023-09-30T00:20:40;2.90;;;2.60;;
35745;SDS011;21870;42.812;74.628;2023-09-30T00:23:06;2.60;;;2.20;;
35745;SDS011;21870;42.812;74.628;2023-09-30T00:25:32;3.30;;;2.60;;
35745;SDS011;21870;42.812;74.628;2023-09-30T00:27:59;2.78;;;2.58;;
35745;SDS011;21870;42.812;74.628;2023-09-30T00:30:25;3.10;;;2.80;;
35745;SDS011;21870;42.812;74.628;2023-09-30T00:32:51;4.00;;;2.85;;
35745;SDS011;21870;42.812;74.628;2023-09-30T00:35:17;2.40;;;2.30;;
35745;SDS011;21870;42.812;74.628;2023-09-30T00:37:43;5.57;;;5.18;;
35745;SDS011;21870;42.812;74.628;2023-09-30T00:40:09;11.15;;;10.32;;
35745;SDS011;21870;42.812;74.628;2023-09-30T00:42:40;4.53;;;2.65;;
35745;SDS011;21870;42.812;74.628;2023-09-30T00:45:07;4.70;;;2.67;;
35745;SDS011;21870;42.812;74.628;2023-09-30T00:47:35;3.25;;;2.97;;
35745;SDS011;21870;42.812;74.628;2023-09-30T00:50:02;3.97;;;3.10;;
35745;SDS011;21870;42.812;74.628;2023-09-30T00:52:33;8.07;;;6.55;;
35745;SDS011;21870;42.812;74.628;2023-09-30T00:55:02;3.42;;;2.53;;
35745;SDS011;21870;42.812;74.628;2023-09-30T00:57:28;3.30;;;2.95;;
35745;SDS011;21870;42.812;74.628;2023-09-30T00:59:58;4.68;;;3.65;;
35745;SDS011;21870;42.812;74.628;2023-09-30T01:02:26;6.55;;;3.17;;
35745;SDS011;21870;42.812;74.628;2023-09-30T01:04:52;2.92;;;2.72;;
35745;SDS011;21870;42.812;74.628;2023-09-30T01:07:19;5.28;;;3.28;;
35745;SDS011;21870;42.812;74.628;2023-09-30T01:09:47;5.43;;;3.00;;
35745;SDS011;21870;42.812;74.628;2023-09-30T01:12:13;6.00;;;3.17;;
35745;SDS011;21870;42.812;74.628;2023-09-30T01:14:39;23.77;;;5.45;;
35745;SDS011;21870;42.812;74.628;2023-09-30T01:17:07;9.93;;;3.80;;
35745;SDS011;21870;42.812;74.628;2023-09-30T01:19:34;3.13;;;2.92;;
35745;SDS011;21870;42.812;74.628;2023-09-30T01:22:01;3.53;;;3.22;;
35745;SDS011;21870;42.812;74.628;2023-09-30T01:24:29;4.70;;;4.18;;
35745;SDS011;21870;42.812;74.628;2023-09-30T01:26:55;3.88;;;3.50;;
35745;SDS011;21870;42.812;74.628;2023-09-30T01:29:22;5.57;;;3.58;;
35745;SDS011;21870;42.812;74.628;2023-09-30T01:31:50;4.07;;;3.72;;
35745;SDS011;21870;42.812;74.628;2023-09-30T01:34:17;3.42;;;3.05;;
35745;SDS011;21870;42.812;74.628;2023-09-30T01:36:43;2.90;;;2.70;;
35745;SDS011;21870;42.812;74.628;2023-09-30T01:39:10;5.72;;;3.20;;
35745;SDS011;21870;42.812;74.628;2023-09-30T01:41:37;3.50;;;3.28;;
35745;SDS011;21870;42.812;74.628;2023-09-30T01:44:04;10.23;;;3.42;;
35745;SDS011;21870;42.812;74.628;2023-09-30T01:46:30;4.18;;;3.78;;
35745;SDS011;21870;42.812;74.628;2023-09-30T01:48:56;5.95;;;3.33;;
35745;SDS011;21870;42.812;74.628;2023-09-30T01:51:23;7.38;;;3.70;;
35745;SDS011;21870;42.812;74.628;2023-09-30T01:53:49;13.00;;;4.35;;
35745;SDS011;21870;42.812;74.628;2023-09-30T01:56:15;6.22;;;3.42;;
35745;SDS011;21870;42.812;74.628;2023-09-30T01:58:41;7.45;;;4.13;;
35745;SDS011;21870;42.812;74.628;2023-09-30T02:01:08;9.10;;;4.13;;
35745;SDS011;21870;42.812;74.628;2023-09-30T02:03:34;3.85;;;3.42;;
35745;SDS011;21870;42.812;74.628;2023-09-30T02:06:01;8.05;;;3.97;;
35745;SDS011;21870;42.812;74.628;2023-09-30T02:08:28;5.80;;;3.80;;
35745;SDS011;21870;42.812;74.628;2023-09-30T02:10:54;8.73;;;4.07;;
35745;SDS011;21870;42.812;74.628;2023-09-30T02:13:21;5.22;;;4.07;;
35745;SDS011;21870;42.812;74.628;2023-09-30T02:15:47;10.35;;;4.68;;
35745;SDS011;21870;42.812;74.628;2023-09-30T02:18:13;6.80;;;4.57;;
35745;SDS011;21870;42.812;74.628;2023-09-30T02:20:39;6.72;;;4.55;;
35745;SDS011;21870;42.812;74.628;2023-09-30T02:23:06;12.48;;;4.68;;
35745;SDS011;21870;42.812;74.628;2023-09-30T02:25:38;13.63;;;5.07;;
35745;SDS011;21870;42.812;74.628;2023-09-30T02:28:05;8.27;;;5.60;;
35745;SDS011;21870;42.812;74.628;2023-09-30T02:30:32;11.95;;;5.70;;
35745;SDS011;21870;42.812;74.628;2023-09-30T02:32:58;12.85;;;6.40;;
35745;SDS011;21870;42.812;74.628;2023-09-30T02:35:24;15.60;;;6.85;;
35745;SDS011;21870;42.812;74.628;2023-09-30T02:37:51;21.25;;;6.57;;
35745;SDS011;21870;42.812;74.628;2023-09-30T02:40:18;16.23;;;5.55;;
35745;SDS011;21870;42.812;74.628;2023-09-30T02:42:45;14.32;;;6.65;;
35745;SDS011;21870;42.812;74.628;2023-09-30T02:45:11;18.90;;;6.40;;
35745;SDS011;21870;42.812;74.628;2023-09-30T02:47:38;8.73;;;5.32;;
35745;SDS011;21870;42.812;74.628;2023-09-30T02:50:05;5.50;;;4.32;;
35745;SDS011;21870;42.812;74.628;2023-09-30T02:52:39;6.97;;;5.20;;
35745;SDS011;21870;42.812;74.628;2023-09-30T02:55:11;10.02;;;4.45;;
35745;SDS011;21870;42.812;74.628;2023-09-30T02:57:38;6.95;;;4.30;;
35745;SDS011;21870;42.812;74.628;2023-09-30T03:00:05;6.28;;;4.60;;
35745;SDS011;21870;42.812;74.628;2023-09-30T03:02:54;7.50;;;4.60;;
35745;SDS011;21870;42.812;74.628;2023-09-30T03:05:21;8.20;;;5.03;;
35745;SDS011;21870;42.812;74.628;2023-09-30T03:07:52;11.25;;;6.00;;
35745;SDS011;21870;42.812;74.628;2023-09-30T03:10:19;16.17;;;6.43;;
35745;SDS011;21870;42.812;74.628;2023-09-30T03:12:51;11.85;;;5.78;;
35745;SDS011;21870;42.812;74.628;2023-09-30T03:15:18;14.45;;;5.45;;
35745;SDS011;21870;42.812;74.628;2023-09-30T03:17:44;15.80;;;5.88;;
35745;SDS011;21870;42.812;74.628;2023-09-30T03:20:11;12.02;;;4.95;;
35745;SDS011;21870;42.812;74.628;2023-09-30T03:22:40;12.50;;;5.32;;
35745;SDS011;21870;42.812;74.628;2023-09-30T03:25:14;10.27;;;5.40;;
35745;SDS011;21870;42.812;74.628;2023-09-30T03:27:43;13.98;;;5.25;;
35745;SDS011;21870;42.812;74.628;2023-09-30T03:30:12;15.23;;;5.80;;
35745;SDS011;21870;42.812;74.628;2023-09-30T03:32:39;12.45;;;5.85;;
35745;SDS011;21870;42.812;74.628;2023-09-30T03:35:05;18.20;;;5.93;;
35745;SDS011;21870;42.812;74.628;2023-09-30T03:37:33;13.20;;;4.72;;
35745;SDS011;21870;42.812;74.628;2023-09-30T03:39:59;13.85;;;5.50;;
35745;SDS011;21870;42.812;74.628;2023-09-30T03:42:36;14.82;;;6.00;;
35745;SDS011;21870;42.812;74.628;2023-09-30T03:45:05;13.80;;;6.20;;
35745;SDS011;21870;42.812;74.628;2023-09-30T03:47:34;20.13;;;6.07;;
35745;SDS011;21870;42.812;74.628;2023-09-30T03:50:02;16.90;;;6.72;;
35745;SDS011;21870;42.812;74.628;2023-09-30T03:52:30;17.65;;;6.97;;
35745;SDS011;21870;42.812;74.628;2023-09-30T03:54:59;10.07;;;6.65;;
35745;SDS011;21870;42.812;74.628;2023-09-30T03:57:26;12.45;;;6.70;;
35745;SDS011;21870;42.812;74.628;2023-09-30T03:59:53;17.27;;;7.78;;
35745;SDS011;21870;42.812;74.628;2023-09-30T04:02:19;16.38;;;7.80;;
35745;SDS011;21870;42.812;74.628;2023-09-30T04:04:45;24.38;;;7.65;;
35745;SDS011;21870;42.812;74.628;2023-09-30T04:07:11;16.55;;;8.05;;
35745;SDS011;21870;42.812;74.628;2023-09-30T04:09:38;22.00;;;7.43;;
35745;SDS011;21870;42.812;74.628;2023-09-30T04:12:04;21.10;;;7.22;;
35745;SDS011;21870;42.812;74.628;2023-09-30T04:14:31;33.78;;;9.82;;
35745;SDS011;21870;42.812;74.628;2023-09-30T04:16:57;32.33;;;9.57;;
35745;SDS011;21870;42.812;74.628;2023-09-30T04:19:23;31.67;;;8.82;;
35745;SDS011;21870;42.812;74.628;2023-09-30T04:21:49;29.30;;;8.20;;
35745;SDS011;21870;42.812;74.628;2023-09-30T04:24:15;25.90;;;7.50;;
35745;SDS011;21870;42.812;74.628;2023-09-30T04:26:44;26.67;;;8.32;;
35745;SDS011;21870;42.812;74.628;2023-09-30T04:29:11;15.48;;;6.38;;
35745;SDS011;21870;42.812;74.628;2023-09-30T04:31:38;19.73;;;6.13;;
35745;SDS011;21870;42.812;74.628;2023-09-30T04:34:04;19.13;;;7.65;;
35745;SDS011;21870;42.812;74.628;2023-09-30T04:36:31;19.75;;;7.18;;
35745;SDS011;21870;42.812;74.628;2023-09-30T04:39:00;19.90;;;6.65;;
35745;SDS011;21870;42.812;74.628;2023-09-30T04:41:26;13.15;;;5.38;;
35745;SDS011;21870;42.812;74.628;2023-09-30T04:43:52;11.85;;;5.55;;
35745;SDS011;21870;42.812;74.628;2023-09-30T04:46:18;17.15;;;6.25;;
35745;SDS011;21870;42.812;74.628;2023-09-30T04:48:47;13.43;;;4.95;;
35745;SDS011;21870;42.812;74.628;2023-09-30T04:51:14;9.50;;;4.35;;
35745;SDS011;21870;42.812;74.628;2023-09-30T04:53:43;12.88;;;3.97;;
35745;SDS011;21870;42.812;74.628;2023-09-30T04:56:12;4.80;;;4.40;;
35745;SDS011;21870;42.812;74.628;2023-09-30T04:58:38;7.13;;;4.15;;
35745;SDS011;21870;42.812;74.628;2023-09-30T05:01:04;14.20;;;5.03;;
35745;SDS011;21870;42.812;74.628;2023-09-30T05:03:34;5.10;;;3.90;;
35745;SDS011;21870;42.812;74.628;2023-09-30T05:06:00;7.68;;;4.85;;
35745;SDS011;21870;42.812;74.628;2023-09-30T05:08:28;5.78;;;3.70;;
35745;SDS011;21870;42.812;74.628;2023-09-30T05:10:54;11.65;;;5.15;;
35745;SDS011;21870;42.812;74.628;2023-09-30T05:13:21;8.13;;;4.68;;
35745;SDS011;21870;42.812;74.628;2023-09-30T05:15:49;7.25;;;4.15;;
35745;SDS011;21870;42.812;74.628;2023-09-30T05:18:16;8.40;;;4.15;;
35745;SDS011;21870;42.812;74.628;2023-09-30T05:20:43;16.00;;;4.32;;
35745;SDS011;21870;42.812;74.628;2023-09-30T05:23:09;12.45;;;4.65;;
35745;SDS011;21870;42.812;74.628;2023-09-30T05:25:37;9.98;;;4.88;;
35745;SDS011;21870;42.812;74.628;2023-09-30T05:28:08;13.90;;;4.70;;
35745;SDS011;21870;42.812;74.628;2023-09-30T05:30:34;5.00;;;3.72;;
35745;SDS011;21870;42.812;74.628;2023-09-30T05:33:01;10.52;;;4.68;;
35745;SDS011;21870;42.812;74.628;2023-09-30T05:35:28;12.75;;;4.20;;
35745;SDS011;21870;42.812;74.628;2023-09-30T05:37:57;10.40;;;4.90;;
35745;SDS011;21870;42.812;74.628;2023-09-30T05:40:23;16.75;;;5.95;;
35745;SDS011;21870;42.812;74.628;2023-09-30T05:42:55;10.60;;;6.07;;
35745;SDS011;21870;42.812;74.628;2023-09-30T05:45:26;10.43;;;5.78;;
35745;SDS011;21870;42.812;74.628;2023-09-30T05:47:53;11.13;;;5.72;;
35745;SDS011;21870;42.812;74.628;2023-09-30T05:50:21;14.07;;;6.13;;
35745;SDS011;21870;42.812;74.628;2023-09-30T05:52:52;9.57;;;4.80;;
35745;SDS011;21870;42.812;74.628;2023-09-30T05:55:19;18.35;;;5.50;;
35745;SDS011;21870;42.812;74.628;2023-09-30T05:57:46;10.77;;;4.93;;
35745;SDS011;21870;42.812;74.628;2023-09-30T06:00:15;8.38;;;4.70;;
35745;SDS011;21870;42.812;74.628;2023-09-30T06:02:48;5.57;;;4.28;;
35745;SDS011;21870;42.812;74.628;2023-09-30T06:05:16;16.58;;;4.75;;
35745;SDS011;21870;42.812;74.628;2023-09-30T06:07:47;28.40;;;5.97;;
35745;SDS011;21870;42.812;74.628;2023-09-30T06:10:16;6.75;;;4.00;;
35745;SDS011;21870;42.812;74.628;2023-09-30T06:12:48;11.10;;;4.35;;
35745;SDS011;21870;42.812;74.628;2023-09-30T06:15:25;11.63;;;4.72;;
35745;SDS011;21870;42.812;74.628;2023-09-30T06:17:52;9.57;;;4.00;;
35745;SDS011;21870;42.812;74.628;2023-09-30T06:20:18;11.10;;;4.10;;
35745;SDS011;21870;42.812;74.628;2023-09-30T06:22:47;9.50;;;4.32;;
35745;SDS011;21870;42.812;74.628;2023-09-30T06:25:18;10.57;;;4.97;;
35745;SDS011;21870;42.812;74.628;2023-09-30T06:27:47;13.18;;;5.05;;
35745;SDS011;21870;42.812;74.628;2023-09-30T06:30:14;18.33;;;4.90;;
35745;SDS011;21870;42.812;74.628;2023-09-30T06:32:41;8.55;;;4.45;;
35745;SDS011;21870;42.812;74.628;2023-09-30T06:35:08;7.18;;;4.00;;
35745;SDS011;21870;42.812;74.628;2023-09-30T06:37:37;9.73;;;3.75;;
35745;SDS011;21870;42.812;74.628;2023-09-30T06:40:08;10.15;;;3.70;;
35745;SDS011;21870;42.812;74.628;2023-09-30T06:42:36;10.43;;;3.90;;
35745;SDS011;21870;42.812;74.628;2023-09-30T06:45:05;10.63;;;3.53;;
35745;SDS011;21870;42.812;74.628;2023-09-30T06:47:32;9.55;;;3.20;;
35745;SDS011;21870;42.812;74.628;2023-09-30T06:50:02;7.45;;;3.42;;
35745;SDS011;21870;42.812;74.628;2023-09-30T06:52:37;10.07;;;3.88;;
35745;SDS011;21870;42.812;74.628;2023-09-30T06:55:04;8.68;;;4.28;;
35745;SDS011;21870;42.812;74.628;2023-09-30T06:57:31;7.05;;;4.07;;
35745;SDS011;21870;42.812;74.628;2023-09-30T06:59:58;7.18;;;3.55;;
35745;SDS011;21870;42.812;74.628;2023-09-30T07:02:25;15.82;;;4.68;;
35745;SDS011;21870;42.812;74.628;2023-09-30T07:04:51;10.07;;;3.80;;
35745;SDS011;21870;42.812;74.628;2023-09-30T07:07:18;6.57;;;3.40;;
35745;SDS011;21870;42.812;74.628;2023-09-30T07:09:44;10.48;;;3.28;;
35745;SDS011;21870;42.812;74.628;2023-09-30T07:12:10;4.72;;;2.90;;
35745;SDS011;21870;42.812;74.628;2023-09-30T07:14:37;5.65;;;3.53;;
35745;SDS011;21870;42.812;74.628;2023-09-30T07:17:03;12.15;;;3.42;;
35745;SDS011;21870;42.812;74.628;2023-09-30T07:19:29;8.70;;;3.05;;
35745;SDS011;21870;42.812;74.628;2023-09-30T07:21:56;3.20;;;2.90;;
35745;SDS011;21870;42.812;74.628;2023-09-30T07:24:22;8.77;;;3.55;;
35745;SDS011;21870;42.812;74.628;2023-09-30T07:26:48;8.57;;;3.05;;
35745;SDS011;21870;42.812;74.628;2023-09-30T07:29:14;8.20;;;3.88;;
35745;SDS011;21870;42.812;74.628;2023-09-30T07:31:40;8.48;;;3.78;;
35745;SDS011;21870;42.812;74.628;2023-09-30T07:34:06;7.88;;;3.22;;
35745;SDS011;21870;42.812;74.628;2023-09-30T07:36:32;7.60;;;4.00;;
35745;SDS011;21870;42.812;74.628;2023-09-30T07:38:58;53.53;;;7.70;;
35745;SDS011;21870;42.812;74.628;2023-09-30T07:41:26;11.75;;;3.67;;
35745;SDS011;21870;42.812;74.628;2023-09-30T07:43:52;9.02;;;4.00;;
35745;SDS011;21870;42.812;74.628;2023-09-30T07:46:18;9.32;;;3.47;;
35745;SDS011;21870;42.812;74.628;2023-09-30T07:48:44;20.98;;;4.78;;
35745;SDS011;21870;42.812;74.628;2023-09-30T07:51:11;11.93;;;4.50;;
35745;SDS011;21870;42.812;74.628;2023-09-30T07:53:38;14.02;;;4.35;;
35745;SDS011;21870;42.812;74.628;2023-09-30T07:56:07;8.48;;;4.22;;
35745;SDS011;21870;42.812;74.628;2023-09-30T07:58:33;14.35;;;4.30;;
35745;SDS011;21870;42.812;74.628;2023-09-30T08:00:59;15.63;;;5.00;;
35745;SDS011;21870;42.812;74.628;2023-09-30T08:03:28;9.52;;;4.07;;
35745;SDS011;21870;42.812;74.628;2023-09-30T08:05:54;14.73;;;4.70;;
35745;SDS011;21870;42.812;74.628;2023-09-30T08:08:20;16.42;;;3.75;;
35745;SDS011;21870;42.812;74.628;2023-09-30T08:10:47;14.13;;;3.65;;
35745;SDS011;21870;42.812;74.628;2023-09-30T08:13:13;27.48;;;5.57;;
35745;SDS011;21870;42.812;74.628;2023-09-30T08:15:39;19.02;;;3.80;;
35745;SDS011;21870;42.812;74.628;2023-09-30T08:18:05;8.75;;;2.97;;
35745;SDS011;21870;42.812;74.628;2023-09-30T08:20:33;6.53;;;2.78;;
35745;SDS011;21870;42.812;74.628;2023-09-30T08:22:59;8.45;;;2.67;;
35745;SDS011;21870;42.812;74.628;2023-09-30T08:25:25;16.58;;;3.78;;
35745;SDS011;21870;42.812;74.628;2023-09-30T08:27:52;9.15;;;3.20;;
35745;SDS011;21870;42.812;74.628;2023-09-30T08:30:19;20.35;;;5.60;;
35745;SDS011;21870;42.812;74.628;2023-09-30T08:32:46;9.77;;;4.13;;
35745;SDS011;21870;42.812;74.628;2023-09-30T08:35:12;9.70;;;3.40;;
35745;SDS011;21870;42.812;74.628;2023-09-30T08:37:40;7.18;;;2.75;;
35745;SDS011;21870;42.812;74.628;2023-09-30T08:40:06;8.02;;;3.47;;
35745;SDS011;21870;42.812;74.628;2023-09-30T08:42:35;8.02;;;2.70;;
35745;SDS011;21870;42.812;74.628;2023-09-30T08:45:03;8.13;;;2.95;;
35745;SDS011;21870;42.812;74.628;2023-09-30T08:47:32;19.52;;;4.40;;
35745;SDS011;21870;42.812;74.628;2023-09-30T08:50:00;10.63;;;2.72;;
35745;SDS011;21870;42.812;74.628;2023-09-30T08:52:34;8.65;;;3.20;;
35745;SDS011;21870;42.812;74.628;2023-09-30T08:55:01;9.85;;;2.70;;
35745;SDS011;21870;42.812;74.628;2023-09-30T08:57:29;12.48;;;3.75;;
35745;SDS011;21870;42.812;74.628;2023-09-30T08:59:56;6.45;;;2.35;;
35745;SDS011;21870;42.812;74.628;2023-09-30T09:02:23;7.63;;;3.17;;
35745;SDS011;21870;42.812;74.628;2023-09-30T09:04:49;5.68;;;2.45;;
35745;SDS011;21870;42.812;74.628;2023-09-30T09:07:16;4.80;;;2.20;;
35745;SDS011;21870;42.812;74.628;2023-09-30T09:09:42;18.90;;;3.83;;
35745;SDS011;21870;42.812;74.628;2023-09-30T09:12:29;3.00;;;2.20;;
35745;SDS011;21870;42.812;74.628;2023-09-30T09:14:55;17.45;;;2.92;;
35745;SDS011;21870;42.812;74.628;2023-09-30T09:17:21;7.32;;;2.88;;
35745;SDS011;21870;42.812;74.628;2023-09-30T09:20:00;5.00;;;2.60;;
35745;SDS011;21870;42.812;74.628;2023-09-30T09:22:42;3.33;;;2.17;;
35745;SDS011;21870;42.812;74.628;2023-09-30T09:25:09;11.50;;;3.05;;
35745;SDS011;21870;42.812;74.628;2023-09-30T09:27:36;35.83;;;5.88;;
35745;SDS011;21870;42.812;74.628;2023-09-30T09:35:19;3.40;;;2.17;;
35745;SDS011;21870;42.812;74.628;2023-09-30T09:37:56;8.73;;;2.78;;
35745;SDS011;21870;42.812;74.628;2023-09-30T09:40:29;8.30;;;3.03;;
35745;SDS011;21870;42.812;74.628;2023-09-30T09:42:57;2.90;;;2.42;;
35745;SDS011;21870;42.812;74.628;2023-09-30T09:45:27;4.00;;;2.50;;
35745;SDS011;21870;42.812;74.628;2023-09-30T09:47:56;7.63;;;2.97;;
35745;SDS011;21870;42.812;74.628;2023-09-30T09:50:23;13.30;;;2.95;;
35745;SDS011;21870;42.812;74.628;2023-09-30T09:52:50;3.80;;;2.83;;
35745;SDS011;21870;42.812;74.628;2023-09-30T09:55:19;5.78;;;2.42;;
35745;SDS011;21870;42.812;74.628;2023-09-30T09:57:48;5.38;;;2.55;;
35745;SDS011;21870;42.812;74.628;2023-09-30T10:00:17;5.32;;;2.88;;
35745;SDS011;21870;42.812;74.628;2023-09-30T10:02:46;5.80;;;2.80;;
35745;SDS011;21870;42.812;74.628;2023-09-30T10:05:13;13.50;;;3.15;;
35745;SDS011;21870;42.812;74.628;2023-09-30T10:07:50;6.82;;;2.20;;
35745;SDS011;21870;42.812;74.628;2023-09-30T10:10:19;17.58;;;3.95;;
35745;SDS011;21870;42.812;74.628;2023-09-30T10:12:50;5.00;;;2.70;;
35745;SDS011;21870;42.812;74.628;2023-09-30T10:20:35;8.85;;;3.65;;
35745;SDS011;21870;42.812;74.628;2023-09-30T10:25:52;8.25;;;3.13;;
35745;SDS011;21870;42.812;74.628;2023-09-30T10:31:08;4.53;;;2.63;;
35745;SDS011;21870;42.812;74.628;2023-09-30T10:36:38;8.30;;;3.20;;
35745;SDS011;21870;42.812;74.628;2023-09-30T10:39:06;4.75;;;2.22;;
35745;SDS011;21870;42.812;74.628;2023-09-30T10:46:58;12.15;;;3.97;;
35745;SDS011;21870;42.812;74.628;2023-09-30T10:51:51;6.65;;;2.85;;
35745;SDS011;21870;42.812;74.628;2023-09-30T10:54:24;12.50;;;3.17;;
35745;SDS011;21870;42.812;74.628;2023-09-30T10:56:52;14.10;;;4.13;;
35745;SDS011;21870;42.812;74.628;2023-09-30T10:59:19;11.93;;;3.80;;
35745;SDS011;21870;42.812;74.628;2023-09-30T11:01:47;8.82;;;3.10;;
35745;SDS011;21870;42.812;74.628;2023-09-30T11:04:15;10.35;;;3.22;;
35745;SDS011;21870;42.812;74.628;2023-09-30T11:06:41;7.45;;;3.20;;
35745;SDS011;21870;42.812;74.628;2023-09-30T11:09:08;10.57;;;3.45;;
35745;SDS011;21870;42.812;74.628;2023-09-30T11:11:38;7.95;;;2.85;;
35745;SDS011;21870;42.812;74.628;2023-09-30T11:14:25;11.90;;;3.63;;
35745;SDS011;21870;42.812;74.628;2023-09-30T11:16:59;10.40;;;3.72;;
35745;SDS011;21870;42.812;74.628;2023-09-30T11:19:27;11.40;;;4.55;;
35745;SDS011;21870;42.812;74.628;2023-09-30T11:22:10;6.03;;;3.00;;
35745;SDS011;21870;42.812;74.628;2023-09-30T11:24:38;4.05;;;3.13;;
35745;SDS011;21870;42.812;74.628;2023-09-30T11:27:04;20.05;;;4.47;;
35745;SDS011;21870;42.812;74.628;2023-09-30T11:29:30;5.32;;;2.80;;
35745;SDS011;21870;42.812;74.628;2023-09-30T11:31:56;11.88;;;3.28;;
35745;SDS011;21870;42.812;74.628;2023-09-30T11:34:31;14.50;;;4.22;;
35745;SDS011;21870;42.812;74.628;2023-09-30T11:37:01;22.95;;;4.78;;
35745;SDS011;21870;42.812;74.628;2023-09-30T11:39:28;5.97;;;3.40;;
35745;SDS011;21870;42.812;74.628;2023-09-30T11:41:55;3.72;;;3.33;;
35745;SDS011;21870;42.812;74.628;2023-09-30T11:44:26;8.80;;;3.20;;
35745;SDS011;21870;42.812;74.628;2023-09-30T11:46:54;12.55;;;5.90;;
35745;SDS011;21870;42.812;74.628;2023-09-30T11:49:31;13.70;;;7.05;;
35745;SDS011;21870;42.812;74.628;2023-09-30T11:52:12;12.88;;;10.25;;
35745;SDS011;21870;42.812;74.628;2023-09-30T11:54:44;11.40;;;6.70;;
35745;SDS011;21870;42.812;74.628;2023-09-30T11:57:12;11.90;;;5.68;;
35745;SDS011;21870;42.812;74.628;2023-09-30T11:59:42;8.48;;;4.75;;
35745;SDS011;21870;42.812;74.628;2023-09-30T12:02:10;16.23;;;5.50;;
35745;SDS011;21870;42.812;74.628;2023-09-30T12:04:37;17.15;;;5.78;;
35745;SDS011;21870;42.812;74.628;2023-09-30T12:07:04;14.30;;;6.78;;
35745;SDS011;21870;42.812;74.628;2023-09-30T12:09:33;18.88;;;8.65;;
35745;SDS011;21870;42.812;74.628;2023-09-30T12:12:02;13.95;;;7.82;;
35745;SDS011;21870;42.812;74.628;2023-09-30T12:14:29;9.50;;;5.65;;
35745;SDS011;21870;42.812;74.628;2023-09-30T12:16:58;14.57;;;6.95;;
35745;SDS011;21870;42.812;74.628;2023-09-30T12:19:24;16.95;;;8.68;;
35745;SDS011;21870;42.812;74.628;2023-09-30T12:21:51;11.15;;;7.28;;
35745;SDS011;21870;42.812;74.628;2023-09-30T12:24:17;11.88;;;6.43;;
35745;SDS011;21870;42.812;74.628;2023-09-30T12:26:49;13.25;;;6.68;;
35745;SDS011;21870;42.812;74.628;2023-09-30T12:29:17;17.15;;;7.35;;
35745;SDS011;21870;42.812;74.628;2023-09-30T12:31:44;17.85;;;7.00;;
35745;SDS011;21870;42.812;74.628;2023-09-30T12:34:11;22.60;;;6.90;;
35745;SDS011;21870;42.812;74.628;2023-09-30T12:36:38;28.13;;;7.07;;
35745;SDS011;21870;42.812;74.628;2023-09-30T12:39:05;22.40;;;7.85;;
35745;SDS011;21870;42.812;74.628;2023-09-30T12:41:42;29.63;;;9.32;;
35745;SDS011;21870;42.812;74.628;2023-09-30T12:44:09;28.45;;;9.63;;
35745;SDS011;21870;42.812;74.628;2023-09-30T12:46:36;22.40;;;9.35;;
35745;SDS011;21870;42.812;74.628;2023-09-30T12:49:04;20.90;;;9.75;;
35745;SDS011;21870;42.812;74.628;2023-09-30T12:51:34;26.48;;;8.38;;
35745;SDS011;21870;42.812;74.628;2023-09-30T12:54:01;29.30;;;9.18;;
35745;SDS011;21870;42.812;74.628;2023-09-30T12:56:28;25.98;;;8.38;;
35745;SDS011;21870;42.812;74.628;2023-09-30T12:58:55;41.40;;;11.32;;
35745;SDS011;21870;42.812;74.628;2023-09-30T13:01:21;36.97;;;11.35;;
35745;SDS011;21870;42.812;74.628;2023-09-30T13:03:47;25.98;;;9.68;;
35745;SDS011;21870;42.812;74.628;2023-09-30T13:06:14;9.10;;;7.25;;
35745;SDS011;21870;42.812;74.628;2023-09-30T13:08:41;18.10;;;7.78;;
35745;SDS011;21870;42.812;74.628;2023-09-30T13:11:07;14.77;;;9.00;;
35745;SDS011;21870;42.812;74.628;2023-09-30T13:13:33;15.63;;;9.00;;
35745;SDS011;21870;42.812;74.628;2023-09-30T13:16:00;22.75;;;10.00;;
35745;SDS011;21870;42.812;74.628;2023-09-30T13:18:27;19.40;;;8.88;;
35745;SDS011;21870;42.812;74.628;2023-09-30T13:20:53;13.85;;;7.43;;
35745;SDS011;21870;42.812;74.628;2023-09-30T13:23:20;10.82;;;6.63;;
35745;SDS011;21870;42.812;74.628;2023-09-30T13:25:46;15.27;;;7.15;;
35745;SDS011;21870;42.812;74.628;2023-09-30T13:28:12;14.38;;;5.85;;
35745;SDS011;21870;42.812;74.628;2023-09-30T13:30:39;10.30;;;6.45;;
35745;SDS011;21870;42.812;74.628;2023-09-30T13:33:05;13.85;;;5.80;;
35745;SDS011;21870;42.812;74.628;2023-09-30T13:35:31;12.43;;;5.88;;
35745;SDS011;21870;42.812;74.628;2023-09-30T13:37:59;17.60;;;6.60;;
35745;SDS011;21870;42.812;74.628;2023-09-30T13:40:25;8.02;;;5.65;;
35745;SDS011;21870;42.812;74.628;2023-09-30T13:42:51;27.38;;;6.65;;
35745;SDS011;21870;42.812;74.628;2023-09-30T13:45:17;20.83;;;5.43;;
35745;SDS011;21870;42.812;74.628;2023-09-30T13:47:44;19.27;;;5.25;;
35745;SDS011;21870;42.812;74.628;2023-09-30T13:50:10;18.23;;;5.45;;
35745;SDS011;21870;42.812;74.628;2023-09-30T13:52:36;26.25;;;6.50;;
35745;SDS011;21870;42.812;74.628;2023-09-30T13:55:02;21.80;;;5.75;;
35745;SDS011;21870;42.812;74.628;2023-09-30T13:57:31;12.60;;;4.70;;
35745;SDS011;21870;42.812;74.628;2023-09-30T13:59:57;11.40;;;4.70;;
35745;SDS011;21870;42.812;74.628;2023-09-30T14:02:23;17.65;;;5.03;;
35745;SDS011;21870;42.812;74.628;2023-09-30T14:04:50;13.40;;;5.95;;
35745;SDS011;21870;42.812;74.628;2023-09-30T14:07:18;13.55;;;6.20;;
35745;SDS011;21870;42.812;74.628;2023-09-30T14:09:44;13.80;;;7.55;;
35745;SDS011;21870;42.812;74.628;2023-09-30T14:12:10;15.45;;;7.35;;
35745;SDS011;21870;42.812;74.628;2023-09-30T14:14:37;20.08;;;7.95;;
35745;SDS011;21870;42.812;74.628;2023-09-30T14:17:03;11.55;;;7.68;;
35745;SDS011;21870;42.812;74.628;2023-09-30T14:19:33;16.33;;;7.28;;
35745;SDS011;21870;42.812;74.628;2023-09-30T14:22:00;8.82;;;6.88;;
35745;SDS011;21870;42.812;74.628;2023-09-30T14:24:26;14.90;;;6.15;;
35745;SDS011;21870;42.812;74.628;2023-09-30T14:26:52;7.80;;;5.88;;
35745;SDS011;21870;42.812;74.628;2023-09-30T14:29:20;14.20;;;6.82;;
35745;SDS011;21870;42.812;74.628;2023-09-30T14:31:47;8.25;;;6.47;;
35745;SDS011;21870;42.812;74.628;2023-09-30T14:34:13;9.20;;;6.20;;
35745;SDS011;21870;42.812;74.628;2023-09-30T14:36:40;9.73;;;6.70;;
35745;SDS011;21870;42.812;74.628;2023-09-30T14:39:06;12.82;;;6.07;;
35745;SDS011;21870;42.812;74.628;2023-09-30T14:41:33;6.78;;;6.00;;
35745;SDS011;21870;42.812;74.628;2023-09-30T14:44:00;10.45;;;6.05;;
35745;SDS011;21870;42.812;74.628;2023-09-30T14:46:26;8.45;;;6.43;;
35745;SDS011;21870;42.812;74.628;2023-09-30T14:48:53;9.30;;;5.55;;
35745;SDS011;21870;42.812;74.628;2023-09-30T14:51:22;6.72;;;5.63;;
35745;SDS011;21870;42.812;74.628;2023-09-30T14:53:48;13.18;;;6.15;;
35745;SDS011;21870;42.812;74.628;2023-09-30T14:56:15;19.27;;;6.10;;
35745;SDS011;21870;42.812;74.628;2023-09-30T14:58:42;8.40;;;6.03;;